M/V Gs980 — WTK9405 — position and weather

sailwx.info

Track history (hours):
 
Tides and Currents Weather Stations Pressure Air Temp Water Temp Dewpoint Dewpoint Depression Visibility Wind Speed Wind Dir Waves Ship Positions

M/V Gs980

Owner: ERGON MARINE AND INDUSTRIAL SUPPLY, VICKSBURG, MS. More information available from US FCC via Universal Licensing System and Coast Guard Vessel Documentation Center.

Last reported at 2018-Jan-20 01:00 UTC. Time now 2018-Jan-20 01:22 UTC.
Position N 32°20' W 090°54'.

Length 16 m.

Type: Towing. MMSI: 367099640.

Date/timePositionNaut miles runAvg speedWind from/ knotsBaromVisibWave heightAir tempDewpointWater temp
2018-Jan-20 01:00N 32°20' W 090°54'0 0.6
2018-Jan-20 00:30N 32°20' W 090°54'1 2.1
2018-Jan-20 00:00N 32°21' W 090°53'3 5.3
2018-Jan-19 23:30N 32°23' W 090°54'1 2.1
2018-Jan-19 23:00N 32°23' W 090°53'0 0.3
2018-Jan-19 22:30N 32°23' W 090°53'0 0.8
2018-Jan-19 22:00N 32°23' W 090°53'3 5.4
2018-Jan-19 21:30N 32°20' W 090°54'1 1.2
2018-Jan-19 21:00N 32°21' W 090°53'1 1.6
2018-Jan-19 20:29N 32°21' W 090°53'1 2.3
2018-Jan-19 20:00N 32°21' W 090°54'0 0.0
2018-Jan-19 19:30N 32°21' W 090°54'0 1.0
2018-Jan-19 19:00N 32°21' W 090°53'2 4.5
2018-Jan-19 18:30N 32°23' W 090°53'0 0.6
2018-Jan-19 18:00N 32°23' W 090°53'1 1.0
2018-Jan-19 17:30N 32°23' W 090°53'0 0.0
2018-Jan-19 16:59N 32°23' W 090°53'0 0.0
2018-Jan-19 16:30N 32°23' W 090°53'0 0.7
2018-Jan-19 16:00N 32°23' W 090°53'0 0.0
2018-Jan-19 15:29N 32°23' W 090°53'0 0.5
2018-Jan-19 15:00N 32°23' W 090°53'2 3.1
2018-Jan-19 14:30N 32°22' W 090°53'2 3.4
2018-Jan-19 14:00N 32°23' W 090°53'1 2.1
2018-Jan-19 13:30N 32°22' W 090°53'2 4.6
2018-Jan-19 13:00N 32°20' W 090°54'0 0.7
2018-Jan-19 12:30N 32°20' W 090°54'0 0.7
2018-Jan-19 12:00N 32°20' W 090°54'0 0.0
2018-Jan-19 11:30N 32°20' W 090°54'1 2.8
2018-Jan-19 11:00N 32°21' W 090°53'2 4.5
2018-Jan-19 10:30N 32°23' W 090°53'0 0.7
2018-Jan-19 10:00N 32°23' W 090°53'0 0.0
2018-Jan-19 09:30N 32°23' W 090°53'0 0.0
2018-Jan-19 09:00N 32°23' W 090°53'0 0.0
2018-Jan-19 08:30N 32°23' W 090°53'0 0.0
2018-Jan-19 08:00N 32°23' W 090°53'0 0.0
2018-Jan-19 07:30N 32°23' W 090°53'0 0.0
2018-Jan-19 07:00N 32°23' W 090°53'0 0.0
2018-Jan-19 06:30N 32°23' W 090°53'0 0.0
2018-Jan-19 06:00N 32°23' W 090°53'0 0.0
2018-Jan-19 05:30N 32°23' W 090°53'0 0.0
2018-Jan-19 05:00N 32°23' W 090°53'0 0.0
2018-Jan-19 04:29N 32°23' W 090°53'0 0.0
2018-Jan-19 04:00N 32°23' W 090°53'0 0.0
2018-Jan-19 03:30N 32°23' W 090°53'0 0.9
2018-Jan-19 03:00N 32°23' W 090°53'1 1.0
2018-Jan-19 02:30N 32°23' W 090°53'1 1.3
2018-Jan-19 02:00N 32°22' W 090°53'2 4.6
2018-Jan-19 01:30N 32°20' W 090°54'1 1.6
2018-Jan-19 01:00N 32°21' W 090°53'1 2.4
2018-Jan-19 00:29N 32°20' W 090°54'0 0.6
2018-Jan-19 00:00N 32°20' W 090°54'3 6.7
2018-Jan-18 23:30N 32°23' W 090°53'1 1.1
2018-Jan-18 23:00N 32°23' W 090°54'1 1.2
2018-Jan-18 22:30N 32°23' W 090°53'0 0.4
2018-Jan-18 21:59N 32°23' W 090°53'0 0.0
2018-Jan-18 21:30N 32°23' W 090°53'0 0.0
2018-Jan-18 21:00N 32°23' W 090°53'0 0.0
2018-Jan-18 20:30N 32°23' W 090°53'0 0.0
2018-Jan-18 20:00N 32°23' W 090°53'0 0.0
2018-Jan-18 19:30N 32°23' W 090°53'0 0.0
2018-Jan-18 19:00N 32°23' W 090°53'0 0.1
2018-Jan-18 18:30N 32°23' W 090°53'0 0.1
2018-Jan-18 18:00N 32°23' W 090°53'0 0.1
2018-Jan-18 17:30N 32°23' W 090°53'0 0.0
2018-Jan-18 17:00N 32°23' W 090°53'1 1.4
2018-Jan-18 16:30N 32°23' W 090°53'0 0.3
2018-Jan-18 15:58N 32°23' W 090°53'1 2.9
2018-Jan-18 15:30N 32°22' W 090°53'2 4.5
2018-Jan-18 15:00N 32°20' W 090°54'0 0.0
2018-Jan-18 14:30N 32°20' W 090°54'0 0.0
2018-Jan-18 14:00N 32°20' W 090°54'0 0.0
2018-Jan-18 13:30N 32°20' W 090°54'0 0.0
2018-Jan-18 13:00N 32°20' W 090°54'0 0.3
2018-Jan-18 12:30N 32°20' W 090°54'0 0.3
2018-Jan-18 12:00N 32°20' W 090°54'0 0.0
2018-Jan-18 11:30N 32°20' W 090°54'0 0.0
2018-Jan-18 11:00N 32°20' W 090°54'3 5.9
2018-Jan-18 10:30N 32°22' W 090°53'0 0.0
2018-Jan-18 10:00N 32°22' W 090°53'0 0.0
2018-Jan-18 09:30N 32°22' W 090°53'0 0.0
2018-Jan-18 09:00N 32°22' W 090°53'0 0.0
2018-Jan-18 08:30N 32°22' W 090°53'0 0.0
2018-Jan-18 08:00N 32°22' W 090°53'0 0.0
2018-Jan-18 07:30N 32°22' W 090°53'0 0.0
2018-Jan-18 07:00N 32°22' W 090°53'0 0.0
2018-Jan-18 06:30N 32°22' W 090°53'0 0.0
2018-Jan-18 06:00N 32°22' W 090°53'0 0.0
2018-Jan-18 05:30N 32°22' W 090°53'0 0.0
2018-Jan-18 05:00N 32°22' W 090°53'0 0.0
2018-Jan-18 04:30N 32°22' W 090°53'0 0.0
2018-Jan-18 04:00N 32°22' W 090°53'0 0.0
2018-Jan-18 03:30N 32°22' W 090°53'0 0.1
2018-Jan-18 03:00N 32°22' W 090°53'0 0.2
2018-Jan-18 02:30N 32°22' W 090°53'1 1.5
2018-Jan-18 02:00N 32°23' W 090°53'0 0.7
2018-Jan-18 01:30N 32°23' W 090°53'2 3.1
2018-Jan-18 01:00N 32°22' W 090°53'2 2.1
2018-Jan-18 00:00N 32°20' W 090°54'0 0.0
2018-Jan-17 23:57N 32°20' W 090°54'  
2018-Jan-10 11:08N 32°20' W 090°54'0 0.0
2018-Jan-10 11:01N 32°20' W 090°54'2 4.0
2018-Jan-10 10:30N 32°21' W 090°53'0 0.3
2018-Jan-10 10:00N 32°22' W 090°53'0 0.0
2018-Jan-10 09:31N 32°22' W 090°53'0 0.0
2018-Jan-10 09:00N 32°22' W 090°53'0 0.0
2018-Jan-10 08:31N 32°22' W 090°53'0 0.0
2018-Jan-10 08:01N 32°22' W 090°53'0 0.0
2018-Jan-10 07:31N 32°22' W 090°53'0 0.0
2018-Jan-10 07:01N 32°22' W 090°53'0 0.0
2018-Jan-10 06:31N 32°22' W 090°53'0 0.0
2018-Jan-10 06:01N 32°22' W 090°53'0 0.0
2018-Jan-10 05:31N 32°22' W 090°53'0 0.0
2018-Jan-10 05:00N 32°22' W 090°53'0 0.0
2018-Jan-10 04:31N 32°22' W 090°53'1 1.9
2018-Jan-10 04:01N 32°22' W 090°53'1 1.9
2018-Jan-10 03:31N 32°22' W 090°53'1 2.7
2018-Jan-10 03:00N 32°23' W 090°53'1 1.4
2018-Jan-10 02:31N 32°23' W 090°54'1 1.4
2018-Jan-10 02:00N 32°23' W 090°53'3 5.0
2018-Jan-10 01:31N 32°20' W 090°54'1 1.9
2018-Jan-10 01:01N 32°20' W 090°54'  
Track history (hours):
 
Tides and Currents Weather Stations Pressure Air Temp Water Temp Dewpoint Dewpoint Depression Visibility Wind Speed Wind Dir Waves Ship Positions

M/V Gs980

Owner: ERGON MARINE AND INDUSTRIAL SUPPLY, VICKSBURG, MS. More information available from US FCC via Universal Licensing System and Coast Guard Vessel Documentation Center.

Last reported at 2018-Jan-20 01:00 UTC. Time now 2018-Jan-20 01:22 UTC.
Position N 32°20' W 090°54'.

Length 16 m.

Type: Towing. MMSI: 367099640.

Date/timePositionNaut miles runAvg speedWind from/ knotsBaromVisibWave heightAir tempDewpointWater temp
2018-Jan-20 01:00N 32°20' W 090°54'0 0.6
2018-Jan-20 00:30N 32°20' W 090°54'1 2.1
2018-Jan-20 00:00N 32°21' W 090°53'3 5.3
2018-Jan-19 23:30N 32°23' W 090°54'1 2.1
2018-Jan-19 23:00N 32°23' W 090°53'0 0.3
2018-Jan-19 22:30N 32°23' W 090°53'0 0.8
2018-Jan-19 22:00N 32°23' W 090°53'3 5.4
2018-Jan-19 21:30N 32°20' W 090°54'1 1.2
2018-Jan-19 21:00N 32°21' W 090°53'1 1.6
2018-Jan-19 20:29N 32°21' W 090°53'1 2.3
2018-Jan-19 20:00N 32°21' W 090°54'0 0.0
2018-Jan-19 19:30N 32°21' W 090°54'0 1.0
2018-Jan-19 19:00N 32°21' W 090°53'2 4.5
2018-Jan-19 18:30N 32°23' W 090°53'0 0.6
2018-Jan-19 18:00N 32°23' W 090°53'1 1.0
2018-Jan-19 17:30N 32°23' W 090°53'0 0.0
2018-Jan-19 16:59N 32°23' W 090°53'0 0.0
2018-Jan-19 16:30N 32°23' W 090°53'0 0.7
2018-Jan-19 16:00N 32°23' W 090°53'0 0.0
2018-Jan-19 15:29N 32°23' W 090°53'0 0.5
2018-Jan-19 15:00N 32°23' W 090°53'2 3.1
2018-Jan-19 14:30N 32°22' W 090°53'2 3.4
2018-Jan-19 14:00N 32°23' W 090°53'1 2.1
2018-Jan-19 13:30N 32°22' W 090°53'2 4.6
2018-Jan-19 13:00N 32°20' W 090°54'0 0.7
2018-Jan-19 12:30N 32°20' W 090°54'0 0.7
2018-Jan-19 12:00N 32°20' W 090°54'0 0.0
2018-Jan-19 11:30N 32°20' W 090°54'1 2.8
2018-Jan-19 11:00N 32°21' W 090°53'2 4.5
2018-Jan-19 10:30N 32°23' W 090°53'0 0.7
2018-Jan-19 10:00N 32°23' W 090°53'0 0.0
2018-Jan-19 09:30N 32°23' W 090°53'0 0.0
2018-Jan-19 09:00N 32°23' W 090°53'0 0.0
2018-Jan-19 08:30N 32°23' W 090°53'0 0.0
2018-Jan-19 08:00N 32°23' W 090°53'0 0.0
2018-Jan-19 07:30N 32°23' W 090°53'0 0.0
2018-Jan-19 07:00N 32°23' W 090°53'0 0.0
2018-Jan-19 06:30N 32°23' W 090°53'0 0.0
2018-Jan-19 06:00N 32°23' W 090°53'0 0.0
2018-Jan-19 05:30N 32°23' W 090°53'0 0.0
2018-Jan-19 05:00N 32°23' W 090°53'0 0.0
2018-Jan-19 04:29N 32°23' W 090°53'0 0.0
2018-Jan-19 04:00N 32°23' W 090°53'0 0.0
2018-Jan-19 03:30N 32°23' W 090°53'0 0.9
2018-Jan-19 03:00N 32°23' W 090°53'1 1.0
2018-Jan-19 02:30N 32°23' W 090°53'1 1.3
2018-Jan-19 02:00N 32°22' W 090°53'2 4.6
2018-Jan-19 01:30N 32°20' W 090°54'1 1.6
2018-Jan-19 01:00N 32°21' W 090°53'1 2.4
2018-Jan-19 00:29N 32°20' W 090°54'0 0.6
2018-Jan-19 00:00N 32°20' W 090°54'3 6.7
2018-Jan-18 23:30N 32°23' W 090°53'1 1.1
2018-Jan-18 23:00N 32°23' W 090°54'1 1.2
2018-Jan-18 22:30N 32°23' W 090°53'0 0.4
2018-Jan-18 21:59N 32°23' W 090°53'0 0.0
2018-Jan-18 21:30N 32°23' W 090°53'0 0.0
2018-Jan-18 21:00N 32°23' W 090°53'0 0.0
2018-Jan-18 20:30N 32°23' W 090°53'0 0.0
2018-Jan-18 20:00N 32°23' W 090°53'0 0.0
2018-Jan-18 19:30N 32°23' W 090°53'0 0.0
2018-Jan-18 19:00N 32°23' W 090°53'0 0.1
2018-Jan-18 18:30N 32°23' W 090°53'0 0.1
2018-Jan-18 18:00N 32°23' W 090°53'0 0.1
2018-Jan-18 17:30N 32°23' W 090°53'0 0.0
2018-Jan-18 17:00N 32°23' W 090°53'1 1.4
2018-Jan-18 16:30N 32°23' W 090°53'0 0.3
2018-Jan-18 15:58N 32°23' W 090°53'1 2.9
2018-Jan-18 15:30N 32°22' W 090°53'2 4.5
2018-Jan-18 15:00N 32°20' W 090°54'0 0.0
2018-Jan-18 14:30N 32°20' W 090°54'0 0.0
2018-Jan-18 14:00N 32°20' W 090°54'0 0.0
2018-Jan-18 13:30N 32°20' W 090°54'0 0.0
2018-Jan-18 13:00N 32°20' W 090°54'0 0.3
2018-Jan-18 12:30N 32°20' W 090°54'0 0.3
2018-Jan-18 12:00N 32°20' W 090°54'0 0.0
2018-Jan-18 11:30N 32°20' W 090°54'0 0.0
2018-Jan-18 11:00N 32°20' W 090°54'3 5.9
2018-Jan-18 10:30N 32°22' W 090°53'0 0.0
2018-Jan-18 10:00N 32°22' W 090°53'0 0.0
2018-Jan-18 09:30N 32°22' W 090°53'0 0.0
2018-Jan-18 09:00N 32°22' W 090°53'0 0.0
2018-Jan-18 08:30N 32°22' W 090°53'0 0.0
2018-Jan-18 08:00N 32°22' W 090°53'0 0.0
2018-Jan-18 07:30N 32°22' W 090°53'0 0.0
2018-Jan-18 07:00N 32°22' W 090°53'0 0.0
2018-Jan-18 06:30N 32°22' W 090°53'0 0.0
2018-Jan-18 06:00N 32°22' W 090°53'0 0.0
2018-Jan-18 05:30N 32°22' W 090°53'0 0.0
2018-Jan-18 05:00N 32°22' W 090°53'0 0.0
2018-Jan-18 04:30N 32°22' W 090°53'0 0.0
2018-Jan-18 04:00N 32°22' W 090°53'0 0.0
2018-Jan-18 03:30N 32°22' W 090°53'0 0.1
2018-Jan-18 03:00N 32°22' W 090°53'0 0.2
2018-Jan-18 02:30N 32°22' W 090°53'1 1.5
2018-Jan-18 02:00N 32°23' W 090°53'0 0.7
2018-Jan-18 01:30N 32°23' W 090°53'2 3.1
2018-Jan-18 01:00N 32°22' W 090°53'2 2.1
2018-Jan-18 00:00N 32°20' W 090°54'0 0.0
2018-Jan-17 23:57N 32°20' W 090°54'  
2018-Jan-10 11:08N 32°20' W 090°54'0 0.0
2018-Jan-10 11:01N 32°20' W 090°54'2 4.0
2018-Jan-10 10:30N 32°21' W 090°53'0 0.3
2018-Jan-10 10:00N 32°22' W 090°53'0 0.0
2018-Jan-10 09:31N 32°22' W 090°53'0 0.0
2018-Jan-10 09:00N 32°22' W 090°53'0 0.0
2018-Jan-10 08:31N 32°22' W 090°53'0 0.0
2018-Jan-10 08:01N 32°22' W 090°53'0 0.0
2018-Jan-10 07:31N 32°22' W 090°53'0 0.0
2018-Jan-10 07:01N 32°22' W 090°53'0 0.0
2018-Jan-10 06:31N 32°22' W 090°53'0 0.0
2018-Jan-10 06:01N 32°22' W 090°53'0 0.0
2018-Jan-10 05:31N 32°22' W 090°53'0 0.0
2018-Jan-10 05:00N 32°22' W 090°53'0 0.0
2018-Jan-10 04:31N 32°22' W 090°53'1 1.9
2018-Jan-10 04:01N 32°22' W 090°53'1 1.9
2018-Jan-10 03:31N 32°22' W 090°53'1 2.7
2018-Jan-10 03:00N 32°23' W 090°53'1 1.4
2018-Jan-10 02:31N 32°23' W 090°54'1 1.4
2018-Jan-10 02:00N 32°23' W 090°53'3 5.0
2018-Jan-10 01:31N 32°20' W 090°54'1 1.9
2018-Jan-10 01:01N 32°20' W 090°54'  

Dump ship's entire track history